Time;durP1;ratioP1;P1;durP2;ratioP2;P2;SDS_P1;SDS_P2;PMS_P1;PMS_P2;Temp;Humidity;BMP_temperature;BMP_pressure;BME280_temperature;BME280_humidity;BME280_pressure;Samples;Min_cycle;Max_cycle;Signal;HPM_P1;HPM_P2
2021/03/09 00:01:32;;;;;;;7.17;4.30;;;;;;;-4.73;64.92;99519.91;1715967;83;21203;-71
2021/03/09 00:04:00;;;;;;;9.00;4.90;;;;;;;-4.65;65.02;99527.14;1716092;83;21632;-71
2021/03/09 00:06:27;;;;;;;9.03;4.92;;;;;;;-4.57;64.95;99532.22;1716297;83;21183;-71
2021/03/09 00:08:54;;;;;;;8.33;4.28;;;;;;;-4.54;64.83;99520.13;1716110;83;21159;-71
2021/03/09 00:11:22;;;;;;;7.08;4.10;;;;;;;-4.59;64.56;99524.50;1716216;83;21715;-71
2021/03/09 00:13:49;;;;;;;7.75;4.17;;;;;;;-4.56;64.62;99521.86;1716075;83;21592;-71
2021/03/09 00:16:16;;;;;;;8.08;4.22;;;;;;;-4.54;64.74;99526.58;1716003;83;21226;-71
2021/03/09 00:18:43;;;;;;;8.73;3.80;;;;;;;-4.54;64.78;99518.84;1716183;83;21191;-71
2021/03/09 00:21:11;;;;;;;7.50;4.10;;;;;;;-4.53;64.81;99528.27;1715916;83;21203;-71
2021/03/09 00:23:38;;;;;;;7.87;3.52;;;;;;;-4.55;64.55;99519.70;1716053;83;21195;-72
2021/03/09 00:26:05;;;;;;;7.67;3.62;;;;;;;-4.58;64.56;99517.14;1716020;83;21612;-72
2021/03/09 00:28:33;;;;;;;7.83;3.80;;;;;;;-4.59;64.76;99517.17;1715992;83;21144;-71
2021/03/09 00:31:00;;;;;;;4.45;2.90;;;;;;;-4.59;64.98;99520.63;1716138;83;21596;-71
2021/03/09 00:33:29;;;;;;;5.35;3.00;;;;;;;-4.55;65.02;99518.42;1716114;83;21167;-71
2021/03/09 00:35:56;;;;;;;5.92;3.58;;;;;;;-4.49;65.15;99522.63;1715923;83;21691;-71
2021/03/09 00:38:23;;;;;;;4.15;3.15;;;;;;;-4.46;65.00;99523.45;1716038;83;21159;-71
2021/03/09 00:40:52;;;;;;;4.35;3.42;;;;;;;-4.43;64.87;99525.59;1715983;83;21207;-71
2021/03/09 00:43:19;;;;;;;5.40;3.55;;;;;;;-4.44;65.03;99531.17;1716358;83;21163;-71
2021/03/09 00:45:46;;;;;;;5.30;3.40;;;;;;;-4.41;65.26;99523.41;1717529;83;21199;-72
2021/03/09 00:48:14;;;;;;;3.95;2.92;;;;;;;-4.37;65.25;99524.20;1717805;83;21147;-71
2021/03/09 00:50:44;;;;;;;4.30;3.10;;;;;;;-4.35;65.26;99523.34;1717319;83;21195;-72
2021/03/09 00:53:12;;;;;;;4.72;2.77;;;;;;;-4.32;65.00;99527.60;1716791;83;21231;-73
2021/03/09 00:55:40;;;;;;;7.72;3.70;;;;;;;-4.29;65.14;99526.26;1715987;82;21191;-73
2021/03/09 00:58:08;;;;;;;7.33;3.60;;;;;;;-4.24;65.13;99530.92;1716573;83;21199;-71
2021/03/09 01:00:36;;;;;;;5.40;3.52;;;;;;;-4.23;65.10;99531.34;1715749;83;21215;-71
2021/03/09 01:03:04;;;;;;;6.05;3.30;;;;;;;-4.22;64.96;99520.15;1713705;83;21116;-71
2021/03/09 01:05:31;;;;;;;5.53;2.87;;;;;;;-4.20;64.96;99524.84;1713467;84;21180;-71
2021/03/09 01:07:59;;;;;;;5.03;3.17;;;;;;;-4.20;64.88;99527.41;1713511;84;21604;-71
2021/03/09 01:10:26;;;;;;;5.05;2.95;;;;;;;-4.15;64.83;99526.91;1713673;84;21179;-71
2021/03/09 01:12:53;;;;;;;6.22;3.60;;;;;;;-4.18;65.03;99523.09;1713508;84;21298;-72
2021/03/09 01:15:21;;;;;;;6.00;3.20;;;;;;;-4.17;64.95;99526.10;1713477;84;21192;-72
2021/03/09 01:17:48;;;;;;;5.37;3.30;;;;;;;-4.17;65.06;99524.81;1713689;84;21281;-71
2021/03/09 01:20:16;;;;;;;4.97;2.95;;;;;;;-4.15;65.09;99529.50;1713447;84;21195;-72
2021/03/09 01:22:43;;;;;;;7.97;4.12;;;;;;;-4.13;64.97;99526.47;1685354;84;21167;-71
2021/03/09 01:25:13;;;;;;;9.35;4.28;;;;;;;-4.12;65.21;99525.60;1713386;84;21204;-71
2021/03/09 01:27:40;;;;;;;9.45;4.00;;;;;;;-4.04;65.21;99537.53;1713483;83;21321;-71
2021/03/09 01:30:09;;;;;;;6.90;4.10;;;;;;;-4.03;65.25;99536.66;1713785;84;21592;-71
2021/03/09 01:32:37;;;;;;;10.03;4.47;;;;;;;-3.94;65.26;99544.27;1713661;84;21663;-71
2021/03/09 01:35:07;;;;;;;13.08;5.30;;;;;;;-3.92;65.12;99550.28;1713712;84;21167;-71
2021/03/09 01:37:35;;;;;;;10.25;5.37;;;;;;;-3.85;64.88;99539.41;1713642;84;21164;-71
2021/03/09 01:40:08;;;;;;;9.63;5.35;;;;;;;-3.87;64.83;99554.95;1685311;84;21655;-71
2021/03/09 01:42:37;;;;;;;8.35;4.22;;;;;;;-3.85;64.84;99549.33;1713472;84;21719;-71
2021/03/09 01:45:06;;;;;;;9.55;4.15;;;;;;;-3.83;64.84;99544.97;1713548;84;21314;-71
2021/03/09 01:47:38;;;;;;;9.90;5.10;;;;;;;-3.81;64.87;99548.41;1713480;84;21362;-71
2021/03/09 01:50:09;;;;;;;8.47;4.53;;;;;;;-3.77;64.75;99543.17;1714042;84;21776;-71
2021/03/09 01:52:36;;;;;;;11.20;5.45;;;;;;;-3.75;64.97;99538.84;1713738;84;21620;-72
2021/03/09 01:55:07;;;;;;;8.10;4.10;;;;;;;-3.71;64.74;99541.38;1713461;83;21230;-71
2021/03/09 01:57:37;;;;;;;7.10;3.92;;;;;;;-3.72;64.29;99539.66;1713845;83;21191;-71
2021/03/09 02:00:07;;;;;;;7.83;3.70;;;;;;;-3.72;64.47;99537.50;1713636;84;21176;-71
2021/03/09 02:02:42;;;;;;;6.25;3.52;;;;;;;-3.69;64.46;99537.02;1713747;84;21183;-71
2021/03/09 02:05:12;;;;;;;6.78;4.12;;;;;;;-3.68;64.39;99537.89;1713496;84;21655;-71
2021/03/09 02:07:39;;;;;;;6.65;4.12;;;;;;;-3.69;64.47;99539.59;1713722;84;21572;-71
2021/03/09 02:10:11;;;;;;;7.72;4.03;;;;;;;-3.69;64.55;99536.17;1713645;83;21602;-71
2021/03/09 02:13:07;;;;;;;8.70;4.47;;;;;;;-3.68;64.61;99541.77;1713687;84;21192;-71
2021/03/09 02:16:01;;;;;;;7.62;4.08;;;;;;;-3.62;64.51;99548.11;1713971;84;21611;-70
2021/03/09 02:18:51;;;;;;;6.17;3.47;;;;;;;-3.63;64.58;99549.85;1712856;84;21643;-71
2021/03/09 02:21:54;;;;;;;6.22;3.70;;;;;;;-3.60;64.28;99558.00;1713818;84;21156;-71
2021/03/09 02:24:50;;;;;;;6.45;3.10;;;;;;;-3.63;64.42;99557.61;1713819;84;21591;-70
2021/03/09 02:27:38;;;;;;;4.97;3.55;;;;;;;-3.63;64.49;99549.85;1713659;83;21318;-70
2021/03/09 02:30:22;;;;;;;6.65;3.83;;;;;;;-3.64;64.19;99553.30;1713644;83;21465;-72
2021/03/09 02:35:35;;;;;;;4.85;2.98;;;;;;;-3.56;64.37;99553.64;1819362;79;22884;-70
2021/03/09 02:38:07;;;;;;;7.30;4.33;;;;;;;-3.60;64.08;99554.56;1792892;80;21599;-71
2021/03/09 02:40:35;;;;;;;6.12;3.75;;;;;;;-3.62;64.19;99568.78;1792687;80;21695;-71
2021/03/09 02:43:10;;;;;;;6.15;3.77;;;;;;;-3.61;64.03;99567.91;1792620;80;21608;-71
2021/03/09 02:45:37;;;;;;;8.68;4.50;;;;;;;-3.60;64.18;99569.63;1792976;80;21135;-71
2021/03/09 02:48:06;;;;;;;5.45;3.08;;;;;;;-3.62;64.27;99580.41;1792511;80;21171;-71
2021/03/09 02:50:34;;;;;;;7.33;3.52;;;;;;;-3.62;63.60;99567.49;1792781;80;21174;-71
2021/03/09 02:53:13;;;;;;;5.97;3.42;;;;;;;-3.63;63.56;99572.27;1792690;80;21138;-71
2021/03/09 02:55:43;;;;;;;6.10;3.45;;;;;;;-3.64;63.54;99580.45;1770527;80;21177;-70
2021/03/09 02:58:17;;;;;;;5.40;3.77;;;;;;;-3.62;63.39;99586.88;1761453;81;21631;-70
2021/03/09 03:00:48;;;;;;;5.72;3.67;;;;;;;-3.57;63.68;99597.16;1761389;81;21618;-70
2021/03/09 03:03:16;;;;;;;5.08;3.27;;;;;;;-3.56;63.53;99587.24;1732452;81;21202;-70
2021/03/09 03:05:44;;;;;;;5.70;3.70;;;;;;;-3.57;63.72;99581.66;1708261;81;21210;-71
2021/03/09 03:08:12;;;;;;;10.10;4.30;;;;;;;-3.55;63.77;99596.72;1761317;81;21178;-70
2021/03/09 03:10:43;;;;;;;5.90;3.20;;;;;;;-3.57;63.75;99586.38;1761219;81;21182;-70
2021/03/09 03:13:12;;;;;;;5.10;3.35;;;;;;;-3.53;63.46;99584.59;1761351;81;21628;-70
2021/03/09 03:15:40;;;;;;;5.17;2.92;;;;;;;-3.56;63.41;99578.20;1761391;81;21178;-70
2021/03/09 03:18:15;;;;;;;5.42;3.33;;;;;;;-3.58;63.37;99579.94;1761373;81;21190;-70
2021/03/09 03:20:43;;;;;;;3.50;2.70;;;;;;;-3.64;63.50;99586.91;1761439;81;21300;-70
2021/03/09 03:23:12;;;;;;;5.83;3.25;;;;;;;-3.69;63.64;99591.30;1761254;81;21150;-71
2021/03/09 03:25:39;;;;;;;3.62;2.80;;;;;;;-3.70;63.58;99604.25;1761222;81;21162;-71
2021/03/09 03:28:08;;;;;;;6.00;3.20;;;;;;;-3.72;63.84;99595.23;1761266;81;21182;-71
2021/03/09 03:30:37;;;;;;;3.75;3.00;;;;;;;-3.71;64.09;99602.53;1761354;81;21211;-70
2021/03/09 03:33:05;;;;;;;4.85;2.83;;;;;;;-3.71;63.86;99600.81;1761375;81;21651;-71
2021/03/09 03:35:32;;;;;;;5.22;3.05;;;;;;;-3.73;63.80;99605.14;1749912;81;21194;-71
2021/03/09 03:38:01;;;;;;;6.03;3.00;;;;;;;-3.72;64.02;99608.57;1748670;82;21155;-72
2021/03/09 03:40:29;;;;;;;4.55;2.92;;;;;;;-3.72;63.87;99611.16;1748350;82;21199;-71
2021/03/09 03:42:56;;;;;;;4.40;2.77;;;;;;;-3.75;63.88;99615.09;1748157;82;21175;-70
2021/03/09 03:45:24;;;;;;;5.53;3.02;;;;;;;-3.74;63.39;99612.92;1747971;82;21151;-70
2021/03/09 03:47:59;;;;;;;5.05;3.00;;;;;;;-3.75;63.62;99617.22;1747686;82;21143;-71
2021/03/09 03:50:28;;;;;;;6.17;3.25;;;;;;;-3.74;63.43;99618.09;1747660;82;21171;-71
2021/03/09 03:53:19;;;;;;;4.97;2.98;;;;;;;-3.74;63.33;99631.02;1747842;82;21540;-70
2021/03/09 03:56:21;;;;;;;5.55;2.98;;;;;;;-3.70;63.50;99626.22;1747581;82;21224;-71
2021/03/09 03:59:17;;;;;;;4.92;3.10;;;;;;;-3.67;63.59;99624.86;1779617;79;22934;-70
2021/03/09 04:01:44;;;;;;;7.50;3.30;;;;;;;-3.69;63.41;99635.69;1753314;82;21171;-70
2021/03/09 04:04:13;;;;;;;5.22;3.58;;;;;;;-3.70;63.53;99638.69;1724085;82;21168;-71
2021/03/09 04:06:48;;;;;;;5.00;3.80;;;;;;;-3.72;63.78;99644.34;1753005;82;21309;-71
2021/03/09 04:09:16;;;;;;;5.28;3.40;;;;;;;-3.71;63.30;99633.55;1752967;81;21159;-71
2021/03/09 04:11:44;;;;;;;5.45;3.80;;;;;;;-3.72;63.35;99631.83;1753214;82;21155;-71
2021/03/09 04:14:12;;;;;;;6.62;3.33;;;;;;;-3.69;63.47;99645.57;1753292;81;21115;-71
2021/03/09 04:16:42;;;;;;;4.92;3.50;;;;;;;-3.69;63.62;99639.56;1724380;82;21167;-71
2021/03/09 04:19:11;;;;;;;4.85;2.92;;;;;;;-3.66;63.49;99647.26;1753112;82;21592;-70
2021/03/09 04:21:39;;;;;;;4.72;3.05;;;;;;;-3.69;63.40;99641.70;1753373;82;21175;-70
2021/03/09 04:24:10;;;;;;;5.33;3.08;;;;;;;-3.69;63.21;99642.14;1753138;82;21619;-71
2021/03/09 04:26:39;;;;;;;5.62;3.08;;;;;;;-3.68;63.44;99650.32;1753203;82;22242;-71
2021/03/09 04:29:10;;;;;;;5.15;3.20;;;;;;;-3.68;63.41;99659.37;1723663;82;21340;-71
2021/03/09 04:31:39;;;;;;;4.30;2.90;;;;;;;-3.64;63.54;99652.82;1752857;82;21740;-70
2021/03/09 04:34:07;;;;;;;4.65;2.87;;;;;;;-3.64;63.20;99649.39;1753022;82;21659;-70
2021/03/09 04:36:35;;;;;;;6.17;3.40;;;;;;;-3.66;62.49;99658.47;1752930;81;21171;-71
2021/03/09 04:39:04;;;;;;;5.15;3.30;;;;;;;-3.65;62.86;99654.14;1753094;82;21163;-71
2021/03/09 04:41:32;;;;;;;5.45;3.47;;;;;;;-3.68;62.88;99652.45;1753186;82;21201;-70
2021/03/09 04:44:00;;;;;;;5.03;3.20;;;;;;;-3.66;62.91;99657.18;1752927;82;21143;-70
2021/03/09 04:46:28;;;;;;;5.40;3.35;;;;;;;-3.66;62.92;99652.42;1753167;82;21179;-70
2021/03/09 04:48:56;;;;;;;5.00;3.08;;;;;;;-3.65;62.73;99661.45;1752914;82;21138;-70
2021/03/09 04:51:24;;;;;;;5.50;3.25;;;;;;;-3.65;62.57;99669.66;1752877;81;21198;-70
2021/03/09 04:53:52;;;;;;;4.08;2.75;;;;;;;-3.68;62.69;99672.29;1751370;82;21584;-70
2021/03/09 04:56:19;;;;;;;5.15;3.17;;;;;;;-3.72;62.53;99671.89;1723033;83;21590;-70
2021/03/09 04:58:47;;;;;;;4.28;2.60;;;;;;;-3.71;62.76;99667.14;1712297;83;21191;-70
2021/03/09 05:01:14;;;;;;;5.37;3.15;;;;;;;-3.72;62.49;99676.64;1710346;84;21463;-70
2021/03/09 05:03:41;;;;;;;5.33;3.20;;;;;;;-3.68;62.54;99669.70;1710425;84;21155;-70
2021/03/09 05:06:08;;;;;;;5.92;3.75;;;;;;;-3.70;62.72;99681.78;1710485;84;21155;-72
2021/03/09 05:08:36;;;;;;;6.25;3.33;;;;;;;-3.64;62.57;99684.30;1710253;83;21148;-70
2021/03/09 05:11:03;;;;;;;6.20;3.80;;;;;;;-3.65;62.59;99691.17;1709803;83;21175;-71
2021/03/09 05:13:33;;;;;;;6.47;3.47;;;;;;;-3.64;62.16;99684.30;1709759;84;21317;-71
2021/03/09 05:16:01;;;;;;;6.67;3.60;;;;;;;-3.69;62.03;99682.20;1709874;84;21206;-71
2021/03/09 05:18:29;;;;;;;6.97;3.80;;;;;;;-3.71;61.79;99700.33;1709922;84;21171;-70
2021/03/09 05:20:58;;;;;;;5.72;3.58;;;;;;;-3.70;62.47;99694.70;1709980;84;21183;-71
2021/03/09 05:23:25;;;;;;;6.00;3.92;;;;;;;-3.70;62.45;99701.17;1695782;84;21204;-71
2021/03/09 05:25:52;;;;;;;4.85;3.35;;;;;;;-3.66;62.51;99704.13;1707639;84;21184;-71
2021/03/09 05:28:19;;;;;;;6.08;3.52;;;;;;;-3.63;62.51;99706.69;1698485;83;21595;-71
2021/03/09 05:30:46;;;;;;;4.35;3.02;;;;;;;-3.57;62.38;99722.09;1697393;84;21175;-71
2021/03/09 05:33:14;;;;;;;4.60;3.12;;;;;;;-3.52;61.69;99719.45;1681200;85;21168;-71
2021/03/09 05:35:41;;;;;;;5.72;3.20;;;;;;;-3.52;61.29;99730.64;1695133;84;21171;-71
2021/03/09 05:38:09;;;;;;;4.47;2.95;;;;;;;-3.48;61.55;99718.53;1709085;84;21151;-71
2021/03/09 05:40:36;;;;;;;6.65;3.47;;;;;;;-3.49;61.65;99726.73;1695077;84;21177;-70
2021/03/09 05:43:05;;;;;;;6.40;3.45;;;;;;;-3.47;61.28;99724.97;1692942;84;21311;-71
2021/03/09 05:45:32;;;;;;;6.47;3.77;;;;;;;-3.75;61.52;99692.17;1709686;84;21206;-71
2021/03/09 05:48:00;;;;;;;5.50;3.75;;;;;;;-3.43;61.68;99734.00;1706070;84;21199;-69
2021/03/09 05:50:27;;;;;;;5.85;3.70;;;;;;;-3.46;61.27;99733.15;1685609;84;21325;-70
2021/03/09 05:52:55;;;;;;;7.87;4.58;;;;;;;-3.48;60.92;99737.51;1707944;84;21171;-70
2021/03/09 05:55:23;;;;;;;8.05;4.95;;;;;;;-3.41;61.53;99742.61;1700687;84;21228;-71
2021/03/09 05:57:50;;;;;;;8.13;4.28;;;;;;;-3.40;61.80;99740.41;1684533;84;21231;-70
2021/03/09 06:00:21;;;;;;;6.65;4.45;;;;;;;-3.35;61.55;99745.95;1699468;84;22185;-71
2021/03/09 06:02:50;;;;;;;5.85;4.10;;;;;;;-3.36;61.49;99745.98;1709673;84;21195;-71
2021/03/09 06:05:17;;;;;;;8.20;3.90;;;;;;;-3.34;61.42;99759.31;1709652;83;21144;-70
2021/03/09 06:07:45;;;;;;;5.25;3.98;;;;;;;-3.28;61.89;99767.41;1709823;84;21160;-71
2021/03/09 06:10:22;;;;;;;7.90;4.37;;;;;;;-3.26;61.21;99765.67;1709771;84;21167;-71
2021/03/09 06:12:52;;;;;;;8.30;4.87;;;;;;;-3.27;61.00;99765.25;1709356;84;21199;-71
2021/03/09 06:15:20;;;;;;;10.38;5.60;;;;;;;-3.27;61.48;99783.77;1696573;84;21207;-69
2021/03/09 06:17:58;;;;;;;9.85;5.97;;;;;;;-3.26;61.46;99773.43;1683589;85;21181;-72
2021/03/09 06:20:29;;;;;;;7.45;5.22;;;;;;;-3.27;61.38;99779.89;1687368;84;21179;-72
2021/03/09 06:22:59;;;;;;;7.75;5.20;;;;;;;-3.25;61.51;99777.70;1699042;84;21171;-69
2021/03/09 06:28:12;;;;;;;10.48;5.45;;;;;;;-3.15;61.69;99787.05;1812180;79;23347;-70
2021/03/09 06:30:40;;;;;;;10.18;5.37;;;;;;;-3.15;62.02;99794.80;1787641;80;21173;-70
2021/03/09 06:33:08;;;;;;;7.92;4.80;;;;;;;-3.15;62.23;99793.97;1788434;79;21604;-70
2021/03/09 06:35:41;;;;;;;7.28;5.03;;;;;;;-3.11;62.28;99793.49;1729487;82;21147;-70
2021/03/09 06:38:28;;;;;;;7.05;5.03;;;;;;;-3.13;62.59;99798.23;1705489;84;21195;-70
2021/03/09 06:41:15;;;;;;;9.80;5.22;;;;;;;-3.05;62.72;99799.43;1705353;84;21142;-71
2021/03/09 06:43:47;;;;;;;8.90;4.78;;;;;;;-3.02;62.45;99799.83;1718132;83;21158;-70
2021/03/09 06:46:21;;;;;;;7.20;4.10;;;;;;;-3.00;62.19;99809.27;1695106;84;21186;-71
2021/03/09 06:49:03;;;;;;;12.68;7.58;;;;;;;-2.98;62.57;99805.37;1705644;83;21799;-71
2021/03/09 06:51:36;;;;;;;11.65;6.25;;;;;;;-2.97;62.50;99815.72;1701432;84;21176;-71
2021/03/09 06:54:09;;;;;;;20.80;10.68;;;;;;;-2.91;62.45;99813.47;1710152;83;21158;-71
2021/03/09 06:56:39;;;;;;;23.10;10.18;;;;;;;-2.87;62.59;99815.58;1683365;84;21146;-71
2021/03/09 06:59:23;;;;;;;22.95;10.53;;;;;;;-2.74;62.66;99824.03;1680420;84;21178;-72
2021/03/09 07:02:19;;;;;;;15.68;7.40;;;;;;;-2.69;62.61;99827.40;1702258;84;21175;-72
2021/03/09 07:05:05;;;;;;;11.15;5.17;;;;;;;-2.70;62.64;99830.44;1702208;84;21171;-71
2021/03/09 07:07:42;;;;;;;7.83;4.28;;;;;;;-2.68;63.36;99835.59;1695735;84;21176;-71
2021/03/09 07:10:15;;;;;;;6.58;4.33;;;;;;;-2.63;63.31;99840.27;1693504;84;21567;-72
2021/03/09 07:12:45;;;;;;;8.23;4.35;;;;;;;-2.69;63.24;99840.34;1692958;84;21174;-71
2021/03/09 07:22:54;;;;;;;6.45;4.15;;;;;;;-2.78;63.06;99843.08;1762067;81;21567;-77
2021/03/09 07:25:21;;;;;;;7.75;4.10;;;;;;;-2.73;63.01;99847.75;1733266;81;21186;-77
2021/03/09 07:28:01;;;;;;;7.20;4.08;;;;;;;-2.72;62.13;99849.47;1756590;81;21218;-77
2021/03/09 07:30:32;;;;;;;7.45;4.35;;;;;;;-2.70;62.39;99839.50;1761786;81;21190;-78
2021/03/09 07:33:00;;;;;;;11.93;6.75;;;;;;;-2.60;62.48;99846.67;1761956;81;21162;-78
2021/03/09 07:35:29;;;;;;;12.53;7.15;;;;;;;-2.53;63.48;99843.13;1761918;81;21174;-78
2021/03/09 07:37:56;;;;;;;10.25;6.70;;;;;;;-2.36;63.54;99848.03;1761808;81;21195;-78
2021/03/09 07:40:30;;;;;;;9.85;6.15;;;;;;;-2.27;63.62;99848.78;1761747;81;21156;-83
2021/03/09 07:42:58;;;;;;;;;;;;;;;-2.17;62.57;99843.41;1764776;81;21627;-83
2021/03/09 07:45:34;;;;;;;8.65;5.50;;;;;;;-2.06;62.23;99843.67;1761843;81;20260;-82
2021/03/09 07:48:12;;;;;;;10.10;6.08;;;;;;;-2.05;62.13;99838.91;1762565;81;21556;-83
2021/03/09 07:50:42;;;;;;;9.10;5.72;;;;;;;-1.97;61.58;99834.43;1761948;81;21159;-83
2021/03/09 07:53:12;;;;;;;8.98;6.08;;;;;;;-1.96;61.40;99835.30;1762232;81;21174;-81
2021/03/09 07:55:42;;;;;;;8.98;5.78;;;;;;;-1.89;61.39;99833.00;1757044;81;21127;-82
2021/03/09 07:58:27;;;;;;;11.03;6.12;;;;;;;-1.87;60.58;99837.73;1783423;78;21123;-81
2021/03/09 08:01:04;;;;;;;;;;;;;;;-1.87;60.30;99838.56;1710199;81;21164;-81
2021/03/09 08:03:34;;;;;;;6.80;3.60;;;;;;;-1.84;60.47;99840.28;1746388;82;20154;-81
2021/03/09 08:06:12;;;;;;;4.17;3.10;;;;;;;-1.88;54.62;99840.77;1748151;82;21320;-81
2021/03/09 08:08:53;;;;;;;6.90;3.30;;;;;;;-1.90;55.47;99851.59;1748641;82;21293;-81
2021/03/09 08:11:26;;;;;;;5.35;3.30;;;;;;;-1.85;55.22;99848.94;1748349;82;21143;-74
2021/03/09 08:14:10;;;;;;;6.40;3.50;;;;;;;-1.82;55.12;99841.97;1738513;78;21127;-78
2021/03/09 08:19:33;;;;;;;6.75;4.30;;;;;;;-1.73;54.28;99845.26;1809575;79;22225;-71
2021/03/09 08:22:04;;;;;;;13.78;6.28;;;;;;;-1.88;53.50;99841.20;1771176;80;21142;-71
2021/03/09 08:24:46;;;;;;;10.15;5.00;;;;;;;-1.86;53.49;99837.69;1772325;80;22151;-71
2021/03/09 08:27:38;;;;;;;5.55;3.65;;;;;;;-1.85;53.98;99840.70;1772385;80;21445;-72
2021/03/09 08:30:26;;;;;;;6.37;3.30;;;;;;;-1.87;53.45;99848.94;1758865;80;21130;-71
2021/03/09 08:32:54;;;;;;;6.33;3.52;;;;;;;-1.87;52.62;99846.34;1765421;80;21087;-71
2021/03/09 08:35:33;;;;;;;6.97;4.30;;;;;;;-1.91;52.98;99855.52;1756617;81;21158;-71
2021/03/09 08:38:14;;;;;;;5.12;3.50;;;;;;;-2.02;51.98;99851.80;1758520;80;21178;-71
2021/03/09 08:41:01;;;;;;;7.03;3.60;;;;;;;-2.08;51.99;99848.05;1762473;79;21158;-71
2021/03/09 08:43:28;;;;;;;5.30;3.30;;;;;;;-2.12;51.13;99843.34;1761852;79;21287;-72
2021/03/09 08:45:58;;;;;;;4.95;2.50;;;;;;;-2.13;51.26;99851.16;1772691;79;21166;-72
2021/03/09 08:48:46;;;;;;;4.20;2.70;;;;;;;-2.18;49.21;99844.73;1781999;79;21467;-72
2021/03/09 08:51:40;;;;;;;3.02;2.42;;;;;;;-2.21;46.62;99848.66;1776668;80;21146;-71
2021/03/09 08:54:39;;;;;;;3.47;2.37;;;;;;;-2.24;47.46;99854.75;1756188;82;21170;-72
2021/03/09 08:57:08;;;;;;;4.62;2.75;;;;;;;-2.11;46.90;99845.48;1762265;79;21139;-72
2021/03/09 08:59:38;;;;;;;3.42;2.80;;;;;;;-1.82;47.75;99847.16;1789373;79;21693;-72
2021/03/09 09:02:13;;;;;;;5.10;3.83;;;;;;;-1.63;46.98;99848.09;1688094;83;21556;-72
2021/03/09 09:05:02;;;;;;;8.28;4.05;;;;;;;-1.46;46.87;99852.95;1725176;82;21622;-71
2021/03/09 09:07:35;;;;;;;4.47;3.20;;;;;;;-1.45;46.71;99852.52;1723498;82;21611;-71
2021/03/09 09:10:19;;;;;;;4.65;3.02;;;;;;;-1.59;49.38;99861.41;1718259;82;21169;-71
2021/03/09 09:12:47;;;;;;;5.70;3.50;;;;;;;-1.69;51.56;99863.34;1711662;82;21178;-71
2021/03/09 09:15:25;;;;;;;5.28;3.47;;;;;;;-1.75;53.26;99872.94;1750704;80;21281;-71
2021/03/09 09:17:58;;;;;;;5.67;3.52;;;;;;;-1.92;53.46;99875.38;1708553;82;21349;-70
2021/03/09 09:20:34;;;;;;;7.00;3.55;;;;;;;-2.10;54.74;99876.55;1756590;81;21138;-71
2021/03/09 09:26:02;;;;;;;5.83;3.60;;;;;;;-2.49;56.60;99887.97;1763241;79;23413;-71
2021/03/09 09:28:36;;;;;;;6.30;3.70;;;;;;;-2.68;57.37;99897.73;1760459;80;21147;-72
2021/03/09 09:31:14;;;;;;;6.80;4.22;;;;;;;-2.78;58.61;99896.14;1746562;80;21159;-72
2021/03/09 09:33:54;;;;;;;6.72;4.03;;;;;;;-2.87;59.18;99899.25;1746284;80;21879;-72
2021/03/09 09:36:24;;;;;;;7.03;3.65;;;;;;;-2.90;59.72;99900.59;1744164;82;21139;-71
2021/03/09 09:38:54;;;;;;;7.25;4.17;;;;;;;-2.94;60.24;99900.22;1724657;80;21293;-71
2021/03/09 09:41:22;;;;;;;9.45;5.42;;;;;;;-2.96;60.87;99906.69;1754648;80;21139;-71
2021/03/09 09:43:51;;;;;;;13.65;7.10;;;;;;;-2.95;61.35;99908.86;1750418;82;21167;-71
2021/03/09 09:46:25;;;;;;;9.20;6.10;;;;;;;-2.95;62.78;99906.27;1739837;80;21186;-72
2021/03/09 09:48:52;;;;;;;10.43;7.55;;;;;;;-2.96;63.19;99915.74;1786505;80;21207;-71
2021/03/09 09:51:24;;;;;;;9.83;5.92;;;;;;;-2.98;64.11;99930.88;1706715;83;21189;-71
2021/03/09 09:53:52;;;;;;;9.28;5.35;;;;;;;-2.93;64.22;99917.89;1716083;82;21153;-70
2021/03/09 09:56:25;;;;;;;11.20;5.40;;;;;;;-3.02;64.05;99921.44;1696637;84;21631;-71
2021/03/09 09:58:57;;;;;;;7.72;5.15;;;;;;;-3.11;63.47;99931.91;1702843;82;21186;-71
2021/03/09 10:01:40;;;;;;;12.55;5.97;;;;;;;-3.21;63.29;99927.27;1721180;82;21511;-70
2021/03/09 10:06:56;;;;;;;19.30;11.05;;;;;;;-3.15;62.83;99929.78;1792167;78;24131;-70
2021/03/09 10:09:24;;;;;;;24.57;15.00;;;;;;;-3.19;62.48;99928.11;1784879;80;21170;-70
2021/03/09 10:11:55;;;;;;;12.58;6.25;;;;;;;-3.13;62.42;99936.66;1765157;79;21300;-70
2021/03/09 10:14:27;;;;;;;12.73;7.40;;;;;;;-3.04;62.00;99933.56;1766314;80;21164;-70
2021/03/09 10:16:55;;;;;;;11.50;7.35;;;;;;;-2.97;61.72;99925.70;1721002;81;22382;-70
2021/03/09 10:19:22;;;;;;;10.55;5.60;;;;;;;-2.84;61.37;99917.34;1720555;82;21170;-70
2021/03/09 10:21:56;;;;;;;10.20;5.00;;;;;;;-2.76;59.89;99918.96;1708414;84;22187;-70
2021/03/09 10:24:31;;;;;;;11.20;6.42;;;;;;;-2.68;57.80;99917.14;1698156;84;21174;-70
2021/03/09 10:26:59;;;;;;;7.80;4.53;;;;;;;-2.65;57.92;99923.56;1698562;84;21210;-69
2021/03/09 10:29:31;;;;;;;11.35;6.35;;;;;;;-2.66;57.81;99927.89;1709961;82;21114;-69
2021/03/09 10:32:02;;;;;;;10.43;6.15;;;;;;;-2.61;57.89;99923.09;1718858;82;21623;-69
2021/03/09 10:34:44;;;;;;;12.93;6.37;;;;;;;-2.54;57.90;99927.31;1727200;82;21637;-70
2021/03/09 10:37:13;;;;;;;12.40;6.30;;;;;;;-2.50;58.43;99928.98;1707599;82;21178;-70
2021/03/09 10:39:57;;;;;;;13.00;6.70;;;;;;;-2.34;57.47;99924.00;1701958;84;21308;-70
2021/03/09 10:42:45;;;;;;;9.75;5.72;;;;;;;-2.18;56.81;99924.61;1688410;84;21166;-71
2021/03/09 10:45:21;;;;;;;9.15;4.78;;;;;;;-1.96;55.89;99921.69;1698519;84;21305;-72
2021/03/09 10:48:00;;;;;;;7.78;4.42;;;;;;;-1.76;55.08;99934.78;1717657;83;21734;-71
2021/03/09 10:50:31;;;;;;;8.68;5.60;;;;;;;-1.67;55.13;99926.84;1696445;84;21202;-72
2021/03/09 10:52:59;;;;;;;8.85;5.35;;;;;;;-1.49;55.61;99921.31;1702532;84;21539;-72
2021/03/09 10:55:26;;;;;;;9.05;5.75;;;;;;;-1.36;53.79;99927.58;1704914;84;21181;-71
2021/03/09 10:57:55;;;;;;;9.25;5.80;;;;;;;-1.32;52.79;99927.92;1698850;84;21216;-71
2021/03/09 11:00:23;;;;;;;9.63;5.35;;;;;;;-1.42;53.34;99925.09;1690903;84;21191;-71
2021/03/09 11:02:50;;;;;;;8.65;5.65;;;;;;;-1.59;53.51;99928.00;1699017;84;21836;-71
2021/03/09 11:05:17;;;;;;;11.93;6.22;;;;;;;-1.89;53.89;99931.08;1675330;84;21175;-71
2021/03/09 11:07:45;;;;;;;13.78;6.62;;;;;;;-1.99;54.44;99932.95;1722782;82;21186;-71
2021/03/09 11:10:14;;;;;;;14.05;7.47;;;;;;;-2.05;55.60;99942.58;1736747;81;21774;-71
2021/03/09 11:12:41;;;;;;;7.95;5.03;;;;;;;-2.01;56.63;99940.34;1743116;82;21320;-70
2021/03/09 11:15:09;;;;;;;7.95;5.03;;;;;;;-2.08;58.06;99942.19;1732392;81;21820;-70
2021/03/09 11:17:36;;;;;;;5.30;3.72;;;;;;;-2.31;59.04;99951.59;1732413;81;21285;-70
2021/03/09 11:20:07;;;;;;;6.78;4.40;;;;;;;-2.56;59.48;99954.50;1736928;82;21301;-70
2021/03/09 11:22:35;;;;;;;10.95;6.28;;;;;;;-2.70;60.02;99952.54;1726124;81;21110;-71
2021/03/09 11:25:05;;;;;;;13.48;6.10;;;;;;;-2.82;61.14;99966.05;1735473;82;21206;-70
2021/03/09 11:27:33;;;;;;;9.18;5.87;;;;;;;-2.88;61.50;99973.04;1741385;81;21166;-70
2021/03/09 11:30:01;;;;;;;6.67;4.70;;;;;;;-2.92;61.84;99972.22;1736315;81;21099;-72
2021/03/09 11:32:28;;;;;;;9.65;5.17;;;;;;;-2.88;61.52;99966.12;1745775;82;21147;-71
2021/03/09 11:34:56;;;;;;;8.73;4.60;;;;;;;-2.87;61.71;99954.90;1734604;80;21172;-72
2021/03/09 11:37:23;;;;;;;9.63;5.00;;;;;;;-2.77;61.27;99945.75;1749038;80;21147;-70
2021/03/09 11:39:52;;;;;;;6.87;4.58;;;;;;;-2.73;60.58;99950.00;1735444;81;21745;-71
2021/03/09 11:42:19;;;;;;;10.05;5.33;;;;;;;-2.70;59.40;99940.89;1748574;81;21196;-73
2021/03/09 11:44:46;;;;;;;7.15;4.78;;;;;;;-2.61;58.96;99945.94;1748555;81;21210;-72
2021/03/09 11:47:14;;;;;;;8.63;5.12;;;;;;;-2.55;58.36;99954.92;1729423;81;21200;-72
2021/03/09 11:49:42;;;;;;;8.55;5.37;;;;;;;-2.52;58.16;99945.84;1747808;82;21142;-72
2021/03/09 11:52:10;;;;;;;8.50;5.67;;;;;;;-2.55;58.26;99947.16;1744419;82;21566;-72
2021/03/09 11:54:38;;;;;;;9.90;5.65;;;;;;;-2.53;58.22;99939.36;1723445;81;21138;-72
2021/03/09 11:57:05;;;;;;;10.75;5.97;;;;;;;-2.51;57.71;99947.53;1746239;82;21194;-73
2021/03/09 11:59:32;;;;;;;10.35;5.92;;;;;;;-2.48;57.40;99953.98;1742195;81;21173;-73
2021/03/09 12:01:59;;;;;;;11.85;6.60;;;;;;;-2.48;56.48;99934.55;1759205;81;21117;-72
2021/03/09 12:04:27;;;;;;;11.38;6.25;;;;;;;-2.45;56.25;99944.02;1749099;82;21178;-71
2021/03/09 12:06:54;;;;;;;12.93;5.90;;;;;;;-2.38;55.73;99939.18;1749202;81;21326;-71
2021/03/09 12:09:22;;;;;;;10.10;5.50;;;;;;;-2.31;55.63;99938.19;1758292;81;21600;-72
2021/03/09 12:11:49;;;;;;;12.50;6.92;;;;;;;-2.20;55.01;99949.71;1748326;81;21157;-72
2021/03/09 12:14:16;;;;;;;14.55;7.05;;;;;;;-2.12;54.02;99936.64;1750942;81;21684;-72